createdAt,value
2022-12-31T00:02:50.596Z,88.14
2022-12-31T00:05:53.222Z,87.79
2022-12-31T00:08:59.117Z,86.70
2022-12-31T00:12:01.775Z,87.62
2022-12-31T00:15:04.468Z,86.80
2022-12-31T00:18:07.634Z,87.88
2022-12-31T00:21:10.695Z,87.60
2022-12-31T00:24:13.152Z,88.71
2022-12-31T00:27:15.550Z,89.12
2022-12-31T00:30:18.076Z,88.68
2022-12-31T00:33:20.426Z,88.83
2022-12-31T00:36:29.127Z,89.36
2022-12-31T00:39:31.614Z,88.83
2022-12-31T00:42:33.934Z,89.31
2022-12-31T00:45:36.330Z,89.09
2022-12-31T00:48:39.176Z,88.99
2022-12-31T00:51:41.649Z,88.73
2022-12-31T00:54:44.316Z,88.34
2022-12-31T00:57:46.694Z,88.55
2022-12-31T01:00:49.120Z,89.31
2022-12-31T01:03:55.184Z,88.87
2022-12-31T01:06:57.555Z,89.14
2022-12-31T01:09:59.975Z,89.17
2022-12-31T01:13:02.468Z,88.42
2022-12-31T01:16:12.740Z,88.87
2022-12-31T01:19:18.432Z,88.40
2022-12-31T01:22:20.824Z,89.31
2022-12-31T01:25:23.241Z,89.27
2022-12-31T01:28:25.757Z,89.18
2022-12-31T01:31:28.756Z,89.16
2022-12-31T01:34:31.141Z,89.05
2022-12-31T01:37:33.514Z,88.68
2022-12-31T01:40:40.394Z,90.24
2022-12-31T01:43:44.439Z,90.81
2022-12-31T01:46:49.584Z,90.55
2022-12-31T01:50:02.302Z,90.03
2022-12-31T01:53:06.898Z,89.91
2022-12-31T01:56:09.812Z,89.74
2022-12-31T01:59:14.639Z,89.78
2022-12-31T02:02:17.290Z,89.94
2022-12-31T02:05:25.302Z,89.88
2022-12-31T02:08:27.751Z,89.96
2022-12-31T02:11:36.578Z,89.71
2022-12-31T02:14:45.753Z,90.05
2022-12-31T02:18:22.772Z,89.45
2022-12-31T02:21:43.468Z,89.16
2022-12-31T02:24:48.553Z,89.83
2022-12-31T02:28:23.295Z,89.66
2022-12-31T02:31:37.175Z,89.02
2022-12-31T02:34:48.904Z,89.87
2022-12-31T02:37:56.987Z,89.60
2022-12-31T02:41:00.341Z,89.98
2022-12-31T02:44:19.666Z,89.47
2022-12-31T02:47:27.942Z,89.90
2022-12-31T02:50:55.555Z,90.20
2022-12-31T02:54:36.802Z,90.31
2022-12-31T02:57:47.401Z,90.20
2022-12-31T03:01:13.387Z,89.96
2022-12-31T03:04:32.142Z,90.21
2022-12-31T03:07:35.021Z,89.89
2022-12-31T03:10:37.734Z,90.30
2022-12-31T03:13:40.062Z,90.72
2022-12-31T03:16:42.417Z,91.33
2022-12-31T03:20:03.116Z,91.29
2022-12-31T03:23:08.788Z,90.88
2022-12-31T03:26:12.672Z,90.89
2022-12-31T03:29:15.095Z,91.47
2022-12-31T03:32:17.458Z,91.87
2022-12-31T03:35:21.694Z,92.02
2022-12-31T03:38:24.759Z,92.37
2022-12-31T03:41:27.513Z,91.84
2022-12-31T03:44:29.917Z,91.48
2022-12-31T03:47:32.624Z,91.80
2022-12-31T03:50:37.610Z,91.90
2022-12-31T03:53:39.957Z,91.97
2022-12-31T03:56:42.786Z,92.38
2022-12-31T03:59:45.119Z,92.26
2022-12-31T04:02:48.458Z,92.28
2022-12-31T04:05:55.330Z,91.96
2022-12-31T04:08:57.753Z,92.32
2022-12-31T04:12:00.201Z,91.39
2022-12-31T04:15:05.790Z,91.82
2022-12-31T04:18:08.250Z,91.64
2022-12-31T04:21:10.935Z,91.26
2022-12-31T04:24:13.441Z,91.71
2022-12-31T04:27:15.811Z,91.77
2022-12-31T04:30:18.307Z,91.88
2022-12-31T04:33:20.629Z,91.36
2022-12-31T04:36:22.976Z,91.53
2022-12-31T04:39:26.180Z,91.63
2022-12-31T04:42:28.582Z,91.29
2022-12-31T04:45:31.139Z,91.77
2022-12-31T04:48:34.916Z,91.66
2022-12-31T04:51:37.732Z,91.31
2022-12-31T04:54:40.135Z,91.51
2022-12-31T04:57:42.483Z,91.20
2022-12-31T05:00:46.198Z,91.71
2022-12-31T05:03:49.346Z,90.96
2022-12-31T05:06:51.777Z,91.40
2022-12-31T05:09:54.421Z,91.37
2022-12-31T05:12:56.733Z,91.47
2022-12-31T05:15:59.059Z,92.00
2022-12-31T05:19:01.459Z,91.80
2022-12-31T05:22:22.087Z,91.70
2022-12-31T05:25:24.581Z,91.33
2022-12-31T05:28:27.012Z,91.60
2022-12-31T05:31:29.510Z,91.58
2022-12-31T05:34:31.867Z,90.88
2022-12-31T05:37:34.439Z,91.55
2022-12-31T05:40:36.777Z,91.59
2022-12-31T05:43:39.146Z,90.96
2022-12-31T05:46:41.508Z,91.13
2022-12-31T05:49:44.061Z,91.18
2022-12-31T05:52:47.726Z,91.67
2022-12-31T05:55:50.300Z,91.29
2022-12-31T05:58:52.628Z,91.45
2022-12-31T06:01:55.299Z,91.85
2022-12-31T06:04:57.674Z,91.83
2022-12-31T06:08:00.142Z,91.11
2022-12-31T06:11:02.609Z,90.64
2022-12-31T06:14:05.535Z,90.53
2022-12-31T06:17:07.944Z,90.54
2022-12-31T06:20:13.152Z,89.47
2022-12-31T06:23:15.902Z,89.59
2022-12-31T06:26:18.333Z,90.54
2022-12-31T06:29:20.961Z,90.80
2022-12-31T06:32:23.341Z,90.69
2022-12-31T06:35:25.772Z,89.77
2022-12-31T06:38:30.237Z,89.93
2022-12-31T06:41:32.969Z,90.00
2022-12-31T06:44:35.321Z,90.14
2022-12-31T06:47:37.765Z,89.66
2022-12-31T06:50:40.417Z,90.36
2022-12-31T06:53:43.201Z,90.19
2022-12-31T06:56:45.809Z,90.23
2022-12-31T06:59:48.397Z,89.90
2022-12-31T07:03:16.984Z,89.72
2022-12-31T07:06:37.652Z,90.24
2022-12-31T07:09:53.762Z,89.04
2022-12-31T07:13:07.016Z,89.52
2022-12-31T07:16:27.977Z,89.05
2022-12-31T07:19:57.653Z,89.02
2022-12-31T07:23:00.585Z,89.57
2022-12-31T07:26:11.286Z,89.69
2022-12-31T07:29:37.949Z,89.11
2022-12-31T07:33:24.493Z,89.63
2022-12-31T07:36:55.520Z,89.75
2022-12-31T07:40:24.013Z,90.12
2022-12-31T07:43:56.282Z,89.44
2022-12-31T07:47:03.556Z,89.02
2022-12-31T07:50:06.912Z,89.87
2022-12-31T07:53:10.427Z,89.81
2022-12-31T07:56:13.580Z,90.04
2022-12-31T07:59:46.806Z,89.91
2022-12-31T08:03:19.141Z,89.09
2022-12-31T08:06:36.863Z,86.75
2022-12-31T08:10:12.571Z,87.84
2022-12-31T08:13:18.488Z,87.23
2022-12-31T08:16:21.807Z,87.66
2022-12-31T08:19:30.696Z,88.96
2022-12-31T08:22:59.058Z,88.57
2022-12-31T08:26:36.526Z,88.05
2022-12-31T08:30:00.433Z,88.45
2022-12-31T08:33:14.295Z,88.57
2022-12-31T08:36:23.337Z,88.87
2022-12-31T08:39:51.165Z,87.94
2022-12-31T08:43:30.453Z,88.32
2022-12-31T08:47:03.581Z,87.97
2022-12-31T08:50:07.256Z,86.48
2022-12-31T08:53:10.129Z,83.61
2022-12-31T08:56:34.579Z,84.85
2022-12-31T08:59:47.898Z,85.43
2022-12-31T09:02:50.373Z,84.52
2022-12-31T09:05:58.843Z,84.53
2022-12-31T09:09:27.288Z,84.36
2022-12-31T09:12:32.777Z,85.33
2022-12-31T09:15:47.586Z,84.79
2022-12-31T09:18:50.005Z,85.38
2022-12-31T09:21:52.919Z,85.65
2022-12-31T09:24:55.549Z,85.10
2022-12-31T09:28:09.454Z,84.29
2022-12-31T09:31:18.452Z,84.62
2022-12-31T09:34:40.379Z,85.10
2022-12-31T09:37:49.368Z,85.65
2022-12-31T09:41:14.971Z,86.36
2022-12-31T09:44:35.616Z,86.89
2022-12-31T09:47:43.805Z,86.33
2022-12-31T09:51:30.007Z,85.33
2022-12-31T09:54:54.059Z,85.14
2022-12-31T09:58:07.217Z,86.75
2022-12-31T10:01:34.965Z,87.37
2022-12-31T10:04:58.338Z,86.19
2022-12-31T10:08:45.183Z,85.81
2022-12-31T10:12:02.645Z,85.18
2022-12-31T10:15:23.457Z,85.53
2022-12-31T10:19:12.188Z,84.61
2022-12-31T10:22:41.007Z,84.93
2022-12-31T10:26:01.289Z,84.89
2022-12-31T10:29:24.952Z,87.11
2022-12-31T10:32:43.489Z,85.54
2022-12-31T10:36:21.719Z,85.43
2022-12-31T10:39:50.465Z,86.84
2022-12-31T10:43:01.973Z,86.76
2022-12-31T10:46:33.383Z,86.46
2022-12-31T10:49:44.889Z,87.29
2022-12-31T10:53:11.598Z,87.29
2022-12-31T10:56:13.903Z,85.85
2022-12-31T10:59:57.313Z,85.99
2022-12-31T11:03:47.621Z,85.22
2022-12-31T11:07:23.702Z,85.83
2022-12-31T11:10:32.730Z,86.68
2022-12-31T11:14:12.711Z,85.24
2022-12-31T11:17:41.179Z,86.13
2022-12-31T11:21:09.006Z,87.25
2022-12-31T11:24:33.294Z,87.92
2022-12-31T11:27:59.743Z,86.75
2022-12-31T11:31:39.660Z,87.27
2022-12-31T11:35:07.556Z,87.85
2022-12-31T11:38:38.703Z,87.80
2022-12-31T11:41:54.348Z,88.00
2022-12-31T11:45:37.666Z,88.95
2022-12-31T11:49:02.790Z,89.56
2022-12-31T11:52:49.697Z,87.96
2022-12-31T11:56:46.193Z,87.65
2022-12-31T11:59:49.950Z,88.34
2022-12-31T12:02:59.740Z,89.58
2022-12-31T12:06:02.147Z,89.60
2022-12-31T12:09:14.416Z,88.65
2022-12-31T12:12:17.134Z,88.59
2022-12-31T12:15:35.465Z,87.92
2022-12-31T12:18:47.455Z,89.14
2022-12-31T12:21:51.030Z,90.10
2022-12-31T12:25:16.009Z,88.89
2022-12-31T12:28:18.744Z,87.96
2022-12-31T12:31:23.527Z,88.71
2022-12-31T12:34:37.843Z,88.92
2022-12-31T12:37:40.178Z,89.32
2022-12-31T12:40:59.674Z,89.78
2022-12-31T12:44:07.786Z,88.63
2022-12-31T12:47:16.143Z,89.06
2022-12-31T12:50:25.869Z,89.11
2022-12-31T12:53:55.848Z,88.66
2022-12-31T12:57:28.701Z,89.29
2022-12-31T13:00:57.230Z,90.13
2022-12-31T13:04:34.066Z,90.66
2022-12-31T13:07:43.036Z,90.46
2022-12-31T13:11:15.432Z,89.32
2022-12-31T13:14:41.636Z,88.92
2022-12-31T13:17:47.081Z,89.45
2022-12-31T13:21:49.469Z,89.34
2022-12-31T13:25:00.456Z,90.31
2022-12-31T13:28:06.381Z,89.52
2022-12-31T13:31:20.119Z,90.41
2022-12-31T13:34:28.810Z,90.17
2022-12-31T13:37:39.603Z,90.67
2022-12-31T13:41:25.374Z,90.20
2022-12-31T13:44:42.341Z,90.32
2022-12-31T13:47:50.769Z,89.73
2022-12-31T13:51:02.068Z,89.90
2022-12-31T13:54:10.129Z,88.38
2022-12-31T13:57:26.035Z,88.70
2022-12-31T14:00:53.865Z,89.07
2022-12-31T14:04:07.428Z,87.61
2022-12-31T14:07:22.089Z,88.52
2022-12-31T14:10:31.764Z,88.47
2022-12-31T14:13:45.530Z,88.64
2022-12-31T14:16:59.712Z,88.83
2022-12-31T14:20:23.657Z,89.54
2022-12-31T14:23:58.233Z,89.13
2022-12-31T14:27:05.503Z,89.28
2022-12-31T14:30:31.079Z,88.73
2022-12-31T14:34:15.699Z,87.94
2022-12-31T14:37:36.756Z,89.66
2022-12-31T14:40:54.324Z,89.84
2022-12-31T14:44:05.412Z,89.08
2022-12-31T14:47:09.078Z,88.82
2022-12-31T14:50:23.682Z,88.21
2022-12-31T14:53:28.544Z,89.51
2022-12-31T14:56:33.026Z,89.45
2022-12-31T14:59:40.448Z,89.64
2022-12-31T15:02:49.842Z,90.74
2022-12-31T15:05:56.161Z,90.67
2022-12-31T15:09:23.313Z,91.29
2022-12-31T15:12:44.217Z,91.00
2022-12-31T15:16:10.031Z,90.03
2022-12-31T15:19:18.241Z,90.93
2022-12-31T15:22:43.920Z,90.84
2022-12-31T15:25:49.194Z,91.51
2022-12-31T15:29:03.584Z,90.89
2022-12-31T15:32:16.788Z,90.46
2022-12-31T15:35:21.869Z,90.74
2022-12-31T15:38:34.049Z,90.13
2022-12-31T15:41:46.190Z,90.63
2022-12-31T15:45:02.351Z,89.45
2022-12-31T15:48:50.217Z,90.44
2022-12-31T15:52:04.944Z,90.25
2022-12-31T15:55:08.125Z,90.51
2022-12-31T15:58:20.989Z,89.56
2022-12-31T16:01:28.856Z,90.06
2022-12-31T16:04:39.321Z,90.36
2022-12-31T16:07:42.129Z,90.54
2022-12-31T16:10:44.638Z,90.22
2022-12-31T16:13:51.090Z,90.84
2022-12-31T16:17:02.766Z,91.11
2022-12-31T16:20:26.057Z,90.60
2022-12-31T16:23:28.478Z,91.25
2022-12-31T16:26:50.340Z,91.04
2022-12-31T16:29:59.731Z,90.54
2022-12-31T16:33:05.866Z,91.37
2022-12-31T16:36:19.601Z,90.75
2022-12-31T16:39:33.883Z,90.81
2022-12-31T16:42:44.101Z,90.68
2022-12-31T16:45:46.939Z,90.22
2022-12-31T16:48:55.714Z,89.96
2022-12-31T16:52:28.009Z,90.31
2022-12-31T16:55:32.262Z,90.48
2022-12-31T16:58:40.441Z,90.29
2022-12-31T17:01:43.547Z,90.51
2022-12-31T17:04:56.112Z,90.33
2022-12-31T17:08:19.361Z,89.62
2022-12-31T17:11:28.774Z,89.71
2022-12-31T17:14:31.181Z,89.26
2022-12-31T17:17:38.029Z,89.76
2022-12-31T17:20:40.522Z,89.06
2022-12-31T17:23:49.261Z,89.10
2022-12-31T17:26:52.252Z,89.33
2022-12-31T17:29:54.668Z,89.16
2022-12-31T17:33:13.030Z,89.45
2022-12-31T17:36:22.546Z,89.93
2022-12-31T17:39:26.616Z,89.73
2022-12-31T17:42:39.789Z,89.11
2022-12-31T17:45:44.123Z,88.44
2022-12-31T17:48:51.974Z,87.82
2022-12-31T17:51:54.371Z,88.54
2022-12-31T17:54:56.733Z,89.07
2022-12-31T17:58:04.774Z,88.74
2022-12-31T18:01:08.588Z,89.25
2022-12-31T18:04:15.996Z,90.37
2022-12-31T18:07:18.440Z,90.60
2022-12-31T18:10:24.460Z,90.85
2022-12-31T18:13:27.620Z,89.68
2022-12-31T18:16:30.510Z,90.82
2022-12-31T18:22:55.935Z,90.09
2022-12-31T18:25:58.346Z,90.16
2022-12-31T18:29:13.744Z,90.30
2022-12-31T18:32:27.087Z,89.80
2022-12-31T18:38:52.860Z,90.15
2022-12-31T18:41:55.276Z,90.00
2022-12-31T18:44:57.744Z,90.15
2022-12-31T18:48:00.122Z,89.05
2022-12-31T18:51:02.474Z,90.43
2022-12-31T18:54:05.055Z,91.24
2022-12-31T18:57:07.471Z,90.64
2022-12-31T19:00:11.003Z,91.09
2022-12-31T19:03:21.734Z,90.72
2022-12-31T19:06:24.669Z,89.57
2022-12-31T19:12:50.236Z,89.45
2022-12-31T19:15:53.512Z,89.50
2022-12-31T19:18:55.950Z,90.14
2022-12-31T19:21:58.318Z,88.36
2022-12-31T19:25:00.675Z,89.37
2022-12-31T19:28:04.216Z,89.80
2022-12-31T19:31:06.933Z,89.62
2022-12-31T19:34:09.523Z,90.51
2022-12-31T19:37:15.273Z,89.10
2022-12-31T19:40:29.580Z,88.99
2022-12-31T19:43:32.027Z,90.07
2022-12-31T19:46:34.414Z,89.87
2022-12-31T19:49:36.781Z,89.09
2022-12-31T19:52:39.147Z,89.25
2022-12-31T19:55:42.400Z,89.75
2022-12-31T19:58:45.465Z,89.87
2022-12-31T20:01:47.982Z,90.21
2022-12-31T20:04:50.647Z,88.93
2022-12-31T20:07:53.057Z,88.96
2022-12-31T20:10:58.839Z,89.46
2022-12-31T20:14:01.257Z,88.68
2022-12-31T20:17:03.760Z,88.89
2022-12-31T20:20:06.978Z,89.97
2022-12-31T20:23:09.909Z,89.21
2022-12-31T20:26:12.781Z,89.14
2022-12-31T20:29:15.235Z,89.44
2022-12-31T20:32:17.992Z,89.79
2022-12-31T20:35:20.340Z,90.22
2022-12-31T20:38:22.720Z,89.96
2022-12-31T20:41:26.281Z,90.32
2022-12-31T20:44:28.758Z,89.45
2022-12-31T20:47:31.113Z,89.36
2022-12-31T20:50:33.638Z,89.75
2022-12-31T20:53:36.056Z,89.78
2022-12-31T20:56:40.329Z,90.50
2022-12-31T20:59:42.757Z,89.67
2022-12-31T21:02:50.931Z,90.38
2022-12-31T21:05:56.466Z,89.72
2022-12-31T21:09:00.674Z,89.56
2022-12-31T21:12:21.963Z,90.47
2022-12-31T21:15:24.348Z,90.19
2022-12-31T21:18:26.989Z,89.64
2022-12-31T21:21:29.385Z,89.65
2022-12-31T21:24:31.753Z,90.33
2022-12-31T21:27:35.877Z,90.68
2022-12-31T21:30:41.779Z,91.25
2022-12-31T21:33:45.957Z,89.93
2022-12-31T21:36:48.309Z,90.28
2022-12-31T21:39:50.963Z,90.50
2022-12-31T21:42:53.341Z,90.29
2022-12-31T21:46:07.154Z,89.43
2022-12-31T21:49:09.578Z,90.08
2022-12-31T21:52:28.536Z,90.08
2022-12-31T21:55:49.059Z,91.45
2022-12-31T21:59:16.917Z,91.15
2022-12-31T22:02:38.246Z,90.10
2022-12-31T22:05:58.932Z,91.34
2022-12-31T22:09:01.488Z,90.60
2022-12-31T22:12:04.088Z,89.70
2022-12-31T22:15:14.445Z,90.35
2022-12-31T22:18:18.736Z,90.91
2022-12-31T22:21:23.725Z,90.24
2022-12-31T22:24:26.088Z,90.29
2022-12-31T22:27:30.040Z,90.31
2022-12-31T22:30:33.439Z,89.83
2022-12-31T22:33:36.056Z,89.83
2022-12-31T22:36:38.458Z,90.78
2022-12-31T22:39:43.369Z,91.66
2022-12-31T22:42:47.161Z,90.72
2022-12-31T22:45:49.547Z,90.65
2022-12-31T22:48:53.681Z,91.55
2022-12-31T22:51:59.845Z,90.41
2022-12-31T22:55:05.804Z,90.47
2022-12-31T22:58:08.177Z,89.92
2022-12-31T23:01:22.395Z,89.89
2022-12-31T23:04:25.009Z,90.37
2022-12-31T23:07:27.378Z,90.90
2022-12-31T23:10:48.254Z,91.50
2022-12-31T23:14:10.025Z,90.91
2022-12-31T23:17:36.178Z,90.41
2022-12-31T23:20:57.368Z,90.79
2022-12-31T23:23:59.990Z,91.15
2022-12-31T23:27:02.762Z,90.47
2022-12-31T23:30:05.948Z,90.64
2022-12-31T23:33:14.289Z,90.55
2022-12-31T23:36:16.671Z,91.00
2022-12-31T23:39:19.753Z,90.94
2022-12-31T23:42:22.182Z,90.51
2022-12-31T23:45:29.563Z,90.00
2022-12-31T23:48:35.333Z,88.80
2022-12-31T23:51:37.965Z,89.16
2022-12-31T23:54:40.476Z,89.40
2022-12-31T23:57:43.526Z,89.52
